createdAt,value
2022-11-03T00:04:40.913Z,3.0234113712374584
2022-11-03T00:11:15.953Z,2.3846153846153846
2022-11-03T00:20:42.583Z,2.3411371237458196
2022-11-03T00:27:38.507Z,2.4214046822742477
2022-11-03T00:34:13.422Z,2.2040133779264215
2022-11-03T00:47:28.918Z,1.565217391304348
2022-11-03T00:53:59.175Z,1.839464882943144
2022-11-03T01:00:28.614Z,1.725752508361204
2022-11-03T01:06:57.296Z,1.605351170568562
2022-11-03T01:13:26.308Z,1.4615384615384615
2022-11-03T01:19:54.066Z,1.6153846153846154
2022-11-03T01:26:39.877Z,1.2642140468227425
2022-11-03T01:33:11.444Z,1.234113712374582
2022-11-03T01:39:39.385Z,1.2207357859531773
2022-11-03T01:46:12.854Z,1.568561872909699
2022-11-03T01:53:07.466Z,1.0301003344481605
2022-11-03T01:59:41.420Z,1.5250836120401339
2022-11-03T02:06:10.714Z,0.9364548494983278
2022-11-03T02:16:10.753Z,1.2173913043478262
2022-11-03T02:22:56.979Z,1.2575250836120402
2022-11-03T02:29:26.389Z,1.2809364548494984
2022-11-03T02:35:58.393Z,0.9498327759197325
2022-11-03T02:42:27.503Z,1.3478260869565217
2022-11-03T02:48:56.547Z,1.214046822742475
2022-11-03T03:01:50.339Z,0.9431438127090301
2022-11-03T03:08:21.518Z,0.9163879598662207
2022-11-03T03:14:50.301Z,0.8394648829431438
2022-11-03T03:23:48.674Z,0.9665551839464883
2022-11-03T03:30:18.636Z,0.9866220735785953
2022-11-03T03:36:47.293Z,1.508361204013378
2022-11-03T03:48:10.542Z,0.7023411371237458
2022-11-03T03:54:39.026Z,0.7926421404682275
2022-11-03T04:01:06.455Z,0.9531772575250836
2022-11-03T04:07:42.373Z,0.7424749163879598
2022-11-03T04:14:12.837Z,0.6254180602006689
2022-11-03T04:20:40.216Z,0.9765886287625418
2022-11-03T04:27:25.337Z,0.9464882943143813
2022-11-03T04:33:52.722Z,0.8461538461538461
2022-11-03T04:40:21.673Z,0.8695652173913043
2022-11-03T04:46:49.698Z,0.9364548494983278
2022-11-03T04:53:17.752Z,0.8528428093645485
2022-11-03T05:01:04.694Z,1.2374581939799332
2022-11-03T05:07:33.469Z,0.8260869565217391
2022-11-03T05:14:00.954Z,1.1237458193979932
2022-11-03T05:26:23.633Z,1.354515050167224
2022-11-03T05:32:52.953Z,1.3578595317725752
2022-11-03T05:39:21.975Z,2.0735785953177257
2022-11-03T05:45:55.165Z,1.705685618729097
2022-11-03T05:52:23.891Z,2.0100334448160537
2022-11-03T05:58:51.072Z,1.214046822742475
2022-11-03T06:05:19.844Z,1.648829431438127
2022-11-03T06:13:55.901Z,1.9632107023411371
2022-11-03T06:20:25.151Z,1.7625418060200668
2022-11-03T06:27:12.279Z,1.4414715719063544
2022-11-03T06:33:44.347Z,1.5752508361204014
2022-11-03T06:43:58.742Z,2.1638795986622075
2022-11-03T06:50:26.442Z,1.7625418060200668
2022-11-03T06:57:47.459Z,2.0100334448160537
2022-11-03T07:07:02.187Z,2.6655518394648827
2022-11-03T07:17:12.003Z,2.979933110367893
2022-11-03T07:34:06.727Z,3.8896321070234112
2022-11-03T07:50:02.091Z,2.5217391304347827
2022-11-03T08:08:31.244Z,2.4013377926421406
2022-11-03T08:14:59.028Z,2.3578595317725752
2022-11-03T08:21:26.936Z,2.765886287625418
2022-11-03T08:28:05.271Z,3.0869565217391304
2022-11-03T08:38:19.992Z,2.3444816053511706
2022-11-03T08:46:22.967Z,3.277591973244147
2022-11-03T08:52:52.058Z,2.2441471571906355
2022-11-03T08:59:20.875Z,2.347826086956522
2022-11-03T09:13:11.817Z,1.9331103678929766
2022-11-03T09:19:40.956Z,1.8963210702341138
2022-11-03T09:26:20.754Z,2.6153846153846154
2022-11-03T09:32:48.503Z,2.177257525083612
2022-11-03T09:39:17.481Z,1.7224080267558528
2022-11-03T09:45:45.490Z,1.5953177257525084
2022-11-03T09:54:30.036Z,1.4581939799331103
2022-11-03T10:05:18.138Z,1.7224080267558528
2022-11-03T10:11:48.884Z,2.250836120401338
2022-11-03T10:24:22.187Z,1.8160535117056855
2022-11-03T10:40:02.167Z,1.6120401337792643
2022-11-03T10:46:48.985Z,1.608695652173913
2022-11-03T10:56:20.859Z,1.2408026755852843
2022-11-03T11:02:48.823Z,1.7826086956521738
2022-11-03T11:09:16.968Z,1.3010033444816054
2022-11-03T11:15:44.637Z,1.899665551839465
2022-11-03T11:22:14.479Z,1.8093645484949832
2022-11-03T11:28:51.417Z,1.3010033444816054
2022-11-03T11:35:21.268Z,1.9030100334448161
2022-11-03T11:41:49.547Z,1.3578595317725752
2022-11-03T11:50:38.473Z,1.6555183946488294
2022-11-03T11:59:38.785Z,1.5050167224080269
2022-11-03T12:06:08.176Z,1.4749163879598661
2022-11-03T12:12:36.570Z,1.1471571906354514
2022-11-03T12:19:04.330Z,1.31438127090301
2022-11-03T12:25:43.020Z,1.605351170568562
2022-11-03T12:32:25.841Z,1.7324414715719063
2022-11-03T12:39:02.782Z,1.7123745819397993
2022-11-03T12:45:34.495Z,1.1705685618729098
2022-11-03T12:52:07.650Z,1.1103678929765886
2022-11-03T12:58:36.090Z,1.3846153846153846
2022-11-03T13:05:05.470Z,1.625418060200669
2022-11-03T13:11:35.197Z,1.391304347826087
2022-11-03T13:18:13.303Z,1.645484949832776
2022-11-03T13:24:55.051Z,1.5183946488294315
2022-11-03T13:31:23.290Z,1.2709030100334449
2022-11-03T13:37:53.305Z,2.3846153846153846
2022-11-03T13:47:11.922Z,2.879598662207358
2022-11-03T14:06:31.687Z,7.575250836120401
2022-11-03T14:12:59.349Z,7.431438127090301
2022-11-03T14:19:36.499Z,7.2675585284280935
2022-11-03T14:26:25.317Z,9.561872909698996
2022-11-03T14:33:13.621Z,9.003344481605351
2022-11-03T14:39:41.790Z,3.869565217391304
2022-11-03T14:50:39.243Z,5.528428093645485
2022-11-03T14:57:06.972Z,3.789297658862876
2022-11-03T15:03:34.624Z,3.040133779264214
2022-11-03T15:15:52.734Z,3.1638795986622075
2022-11-03T15:29:27.588Z,4.588628762541806
2022-11-03T15:35:55.968Z,3.0267558528428093
2022-11-03T15:44:33.722Z,4.080267558528428
2022-11-03T15:51:01.794Z,3.3612040133779266
2022-11-03T15:58:20.526Z,4.270903010033445
2022-11-03T16:04:49.467Z,7.535117056856187
2022-11-03T16:11:17.768Z,5.3879598662207355
2022-11-03T16:19:52.221Z,9.725752508361204
2022-11-03T16:31:45.237Z,7.153846153846154
2022-11-03T16:38:14.138Z,6.25752508361204
2022-11-03T16:44:56.074Z,5.230769230769231
2022-11-03T16:51:25.959Z,6.093645484949833
2022-11-03T16:57:54.112Z,6.408026755852843
2022-11-03T17:04:23.388Z,7.8996655518394645
2022-11-03T17:10:52.507Z,14.983277591973245
2022-11-03T17:17:20.937Z,7.451505016722408
2022-11-03T17:24:03.071Z,5.438127090301004
2022-11-03T17:30:32.136Z,5.036789297658863
2022-11-03T17:40:02.747Z,6.357859531772576
2022-11-03T17:46:31.164Z,6.65886287625418
2022-11-03T18:00:52.062Z,8.983277591973245
2022-11-03T18:07:20.029Z,7.8361204013377925
2022-11-03T18:13:48.636Z,7.153846153846154
2022-11-03T18:22:53.986Z,7.62876254180602
2022-11-03T18:29:23.003Z,6.909698996655519
2022-11-03T18:41:19.188Z,6.8595317725752505
2022-11-03T19:03:25.851Z,7.561872909698996
2022-11-03T19:19:52.957Z,6.892976588628763
2022-11-03T19:27:53.143Z,6.538461538461538
2022-11-03T19:35:16.893Z,7.0200668896321075
2022-11-03T19:43:11.160Z,6.033444816053512
2022-11-03T19:51:08.133Z,6.331103678929765
2022-11-03T20:03:54.188Z,6.725752508361204
2022-11-03T20:11:31.063Z,6.511705685618729
2022-11-03T20:19:07.914Z,6.869565217391305
2022-11-03T20:27:17.168Z,6.581939799331104
2022-11-03T20:35:03.619Z,6.7157190635451505
2022-11-03T20:42:30.635Z,6.839464882943144
2022-11-03T20:50:08.935Z,7.448160535117057
2022-11-03T20:57:55.846Z,6.739130434782608
2022-11-03T21:05:58.488Z,7.023411371237458
2022-11-03T21:13:28.708Z,6.725752508361204
2022-11-03T21:38:18.934Z,6.832775919732441
2022-11-03T21:54:30.099Z,6.909698996655519
2022-11-03T22:06:18.206Z,7.260869565217392
2022-11-03T22:14:58.477Z,7.765886287625418
2022-11-03T22:22:56.752Z,7.48494983277592
2022-11-03T22:30:45.784Z,6.923076923076923
2022-11-03T22:38:13.645Z,7.150501672240803
2022-11-03T22:46:04.367Z,7.384615384615385
2022-11-03T22:53:41.257Z,6.872909698996655
2022-11-03T23:01:05.183Z,6.8996655518394645
2022-11-03T23:16:50.960Z,6.317725752508361
2022-11-03T23:24:28.741Z,6.548494983277592
2022-11-03T23:32:05.310Z,6.94314381270903
2022-11-03T23:48:25.621Z,5.210702341137123
